Baie-Sainte-Catherine, Canada
Current Conditions -  °F | °C
As of 1:00 AM on Monday 26 Jan 2015 (Local Time) from CYBG Reporting Station
Scattered Clouds Scattered Clouds  
Wind Chill: -23°   Ceiling: Unl
Heat Index: -6°   Visibility: 15mi
Dew Point: -11°   Wind: 10mph
Humidity: 77%   Direction: 270°W
Pressure: 30.02"   Gusts: NA
Location:  48.1°N, 69.73°W
Report Text: CYBG 260600Z 27009KT 15SM SCT030 M21/M24 A3002 RMK SC3 SLP183
Loading
Personal Weather Stations






























Interactive Weather Map New forecast layout! Learn more

10-Day Weather Forecast

Advertisements
Track Severe Weather on mobile